TAF Text Data
IDs:
Format:
Raw Decoded Include METAR

Data at: 0136 UTC 01 Nov 2020

KDVN 010052Z AUTO 21010KT 10SM OVC075 16/04 A2990 RMK AO2 SLP123 T01610044


KMLI 010052Z 20012G19KT 10SM OVC080 16/04 A2988 RMK AO2 SLP120 T01610044

KMLI 312341Z 0100/0124 23013KT P6SM BKN070
  FM010200 29015G23KT P6SM BKN150
  FM010400 31022G34KT P6SM SKC
  FM012200 31014G21KT P6SM SKC